Time;durP1;ratioP1;P1;durP2;ratioP2;P2;SDS_P1;SDS_P2;PMS_P1;PMS_P2;Temp;Humidity;BMP_temperature;BMP_pressure;BME280_temperature;BME280_humidity;BME280_pressure;Samples;Min_cycle;Max_cycle;Signal;HPM_P1;HPM_P2
2024/01/27 00:00:08;;;;;;;1999.90;999.90;;;4.10;99.90;;;;;;5019751;28;20068;-84
2024/01/27 00:02:34;;;;;;;1999.90;999.90;;;3.40;99.90;;;;;;5034805;28;20037;-84
2024/01/27 00:05:00;;;;;;;1999.90;999.90;;;4.40;99.90;;;;;;5021947;28;20409;-84
2024/01/27 00:07:27;;;;;;;1999.90;999.90;;;4.20;99.90;;;;;;5019678;28;20061;-84
2024/01/27 00:09:54;;;;;;;1999.90;999.90;;;4.40;99.90;;;;;;5015918;28;20045;-84
2024/01/27 00:12:20;;;;;;;1999.90;999.90;;;3.30;99.90;;;;;;5019680;28;20044;-84
2024/01/27 00:14:46;;;;;;;1999.90;999.90;;;3.20;99.90;;;;;;5013966;28;20099;-84
2024/01/27 00:17:12;;;;;;;1999.90;999.90;;;3.20;99.90;;;;;;5035357;28;20040;-84
2024/01/27 00:19:37;;;;;;;1999.90;999.90;;;3.20;99.90;;;;;;5017487;28;20041;-83
2024/01/27 00:22:03;;;;;;;1999.90;999.90;;;3.20;99.90;;;;;;5015925;28;20036;-83
2024/01/27 00:24:29;;;;;;;1999.90;999.90;;;3.20;99.90;;;;;;5032334;28;20033;-84
2024/01/27 00:26:54;;;;;;;1999.90;999.90;;;3.20;99.90;;;;;;5032459;28;20038;-84
2024/01/27 00:29:20;;;;;;;1999.90;999.90;;;4.10;99.90;;;;;;5021035;28;20083;-84
2024/01/27 00:31:46;;;;;;;1999.90;999.90;;;3.10;99.90;;;;;;5020186;28;20037;-84
2024/01/27 00:34:12;;;;;;;1999.90;999.90;;;3.10;99.90;;;;;;5032459;28;20520;-84
2024/01/27 00:36:37;;;;;;;1999.90;999.90;;;3.10;99.90;;;;;;5019665;28;20292;-84
2024/01/27 00:39:04;;;;;;;1999.90;999.90;;;3.10;99.90;;;;;;5012716;28;20236;-83
2024/01/27 00:41:30;;;;;;;1999.90;999.90;;;3.10;99.90;;;;;;5031943;28;20038;-84
2024/01/27 00:43:55;;;;;;;1999.90;999.90;;;4.50;99.90;;;;;;5040721;28;20099;-83
2024/01/27 00:46:21;;;;;;;1999.90;999.90;;;3.10;99.90;;;;;;5017924;28;20104;-84
2024/01/27 00:48:47;;;;;;;1999.90;999.90;;;4.30;99.90;;;;;;5016619;28;20455;-84
2024/01/27 00:51:13;;;;;;;1999.90;999.90;;;3.10;99.90;;;;;;5035702;28;20029;-83
2024/01/27 00:53:39;;;;;;;1999.90;999.90;;;3.00;99.90;;;;;;5010650;28;20409;-84
2024/01/27 00:56:05;;;;;;;1999.90;999.90;;;3.00;99.90;;;;;;5018921;28;20133;-84
2024/01/27 00:58:31;;;;;;;1999.90;999.90;;;3.00;99.90;;;;;;5034380;28;20121;-83
2024/01/27 01:00:58;;;;;;;1999.90;999.90;;;3.00;99.90;;;;;;5017427;28;20093;-84
2024/01/27 01:03:24;;;;;;;1999.90;999.90;;;3.00;99.90;;;;;;5012722;28;20029;-85
2024/01/27 01:05:50;;;;;;;1999.90;999.90;;;3.00;99.90;;;;;;5010699;28;20209;-83
2024/01/27 01:08:15;;;;;;;1999.90;999.90;;;2.90;99.90;;;;;;5026839;28;20064;-83
2024/01/27 01:10:41;;;;;;;1999.90;999.90;;;2.90;99.90;;;;;;5011058;28;20105;-83
2024/01/27 01:13:06;;;;;;;1999.90;999.90;;;2.90;99.90;;;;;;5014215;28;20045;-83
2024/01/27 01:15:32;;;;;;;1999.90;999.90;;;4.40;99.90;;;;;;5013141;28;20602;-83
2024/01/27 01:17:58;;;;;;;1999.90;999.90;;;3.00;99.90;;;;;;5017827;28;20071;-84
2024/01/27 01:20:25;;;;;;;1999.90;999.90;;;2.90;99.90;;;;;;5021133;28;20040;-84
2024/01/27 01:22:51;;;;;;;1999.90;999.90;;;2.90;99.90;;;;;;5015943;28;20401;-84
2024/01/27 01:25:17;;;;;;;1999.90;999.90;;;2.90;99.90;;;;;;5014099;28;20037;-84
2024/01/27 01:27:43;;;;;;;1999.90;999.90;;;2.90;99.90;;;;;;5010020;28;20061;-84
2024/01/27 01:30:09;;;;;;;1999.90;999.90;;;2.90;99.90;;;;;;5012594;28;20029;-84
2024/01/27 01:32:35;;;;;;;1999.90;999.90;;;2.90;99.90;;;;;;5013956;28;20094;-84
2024/01/27 01:35:00;;;;;;;1999.90;999.90;;;2.90;99.90;;;;;;5027569;28;20414;-84
2024/01/27 01:37:26;;;;;;;1999.90;999.90;;;2.90;99.90;;;;;;5030049;28;20069;-84
2024/01/27 01:39:55;;;;;;;1999.90;999.90;;;2.90;99.90;;;;;;5028798;28;20065;-84
2024/01/27 01:42:24;;;;;;;1999.90;999.90;;;4.00;99.90;;;;;;5013283;28;20033;-84
2024/01/27 01:44:50;;;;;;;1999.90;999.90;;;2.10;99.90;;;;;;5010372;28;20046;-84
2024/01/27 01:47:16;;;;;;;1999.90;999.90;;;2.80;99.90;;;;;;5013802;28;20038;-84
2024/01/27 01:49:42;;;;;;;1999.90;999.90;;;2.80;99.90;;;;;;5020392;28;20060;-83
2024/01/27 01:52:08;;;;;;;1999.90;999.90;;;2.80;99.90;;;;;;5021045;28;20124;-84
2024/01/27 01:54:34;;;;;;;1999.90;999.90;;;3.70;99.90;;;;;;5014614;28;20299;-84
2024/01/27 01:57:02;;;;;;;1999.90;999.90;;;3.80;99.90;;;;;;5030921;28;20091;-84
2024/01/27 01:59:27;;;;;;;1999.90;999.90;;;2.70;99.90;;;;;;5034184;28;20040;-84
2024/01/27 02:01:54;;;;;;;1999.90;999.90;;;2.70;99.90;;;;;;5002362;28;20045;-84
2024/01/27 02:04:20;;;;;;;1999.90;999.90;;;2.70;99.90;;;;;;5031903;28;20048;-83
2024/01/27 02:06:46;;;;;;;1999.90;999.90;;;2.70;99.90;;;;;;5019881;28;20040;-83
2024/01/27 02:09:12;;;;;;;1999.90;999.90;;;2.70;99.90;;;;;;5004564;28;20068;-84
2024/01/27 02:11:38;;;;;;;1999.90;999.90;;;3.20;99.90;;;;;;5017658;28;20120;-84
2024/01/27 02:14:04;;;;;;;1999.90;999.90;;;3.30;99.90;;;;;;5012405;28;20084;-84
2024/01/27 02:16:33;;;;;;;1999.90;999.90;;;2.90;99.90;;;;;;5031872;28;20037;-84
2024/01/27 02:18:59;;;;;;;1999.90;999.90;;;4.00;99.90;;;;;;5012139;28;20041;-84
2024/01/27 02:21:25;;;;;;;1999.90;999.90;;;2.60;99.90;;;;;;5015898;28;20066;-84
2024/01/27 02:23:50;;;;;;;1999.90;999.90;;;2.60;99.90;;;;;;5014093;28;20033;-84
2024/01/27 02:26:16;;;;;;;1999.90;999.90;;;2.90;99.90;;;;;;5014315;28;20033;-84
2024/01/27 02:28:42;;;;;;;1999.90;999.90;;;2.60;99.90;;;;;;5015606;28;20057;-84
2024/01/27 02:31:07;;;;;;;1999.90;999.90;;;2.60;99.90;;;;;;5015693;28;20116;-84
2024/01/27 02:33:33;;;;;;;1999.90;999.90;;;2.60;99.90;;;;;;5014651;28;20036;-84
2024/01/27 02:35:58;;;;;;;1999.90;999.90;;;2.60;99.90;;;;;;5011793;28;20041;-84
2024/01/27 02:38:24;;;;;;;1999.90;999.90;;;3.60;99.90;;;;;;5013576;28;20034;-84
2024/01/27 02:40:50;;;;;;;1999.90;999.90;;;3.80;99.90;;;;;;5030929;28;20037;-84
2024/01/27 02:43:15;;;;;;;1999.90;999.90;;;3.80;99.90;;;;;;5013244;28;20033;-84
2024/01/27 02:45:41;;;;;;;1999.90;999.90;;;2.60;99.90;;;;;;5012433;28;20099;-83
2024/01/27 02:48:07;;;;;;;1999.90;999.90;;;3.60;99.90;;;;;;5031434;28;20071;-83
2024/01/27 02:50:32;;;;;;;1999.90;999.90;;;2.60;99.90;;;;;;5013157;28;20043;-84
2024/01/27 02:52:58;;;;;;;1999.90;999.90;;;2.60;99.90;;;;;;5013532;28;20076;-84
2024/01/27 02:55:24;;;;;;;1999.90;999.90;;;3.40;99.90;;;;;;5014364;28;20034;-84
2024/01/27 02:57:51;;;;;;;1999.90;999.90;;;2.60;99.90;;;;;;5019555;28;20042;-85
2024/01/27 03:00:17;;;;;;;1999.90;999.90;;;2.60;99.90;;;;;;5012413;28;20041;-84
2024/01/27 03:02:43;;;;;;;1999.90;999.90;;;2.60;99.90;;;;;;5004084;28;20091;-84
2024/01/27 03:05:08;;;;;;;1999.90;999.90;;;3.20;99.90;;;;;;5014366;28;20077;-84
2024/01/27 03:07:34;;;;;;;1999.90;999.90;;;2.60;99.90;;;;;;5012088;28;20069;-84
2024/01/27 03:09:59;;;;;;;1999.90;999.90;;;2.70;99.90;;;;;;5027105;28;20471;-84
2024/01/27 03:12:26;;;;;;;1999.90;999.90;;;3.40;99.90;;;;;;5013061;28;20065;-84
2024/01/27 03:14:52;;;;;;;1999.90;999.90;;;2.90;99.90;;;;;;5011925;28;20049;-84
2024/01/27 03:17:17;;;;;;;1999.90;999.90;;;2.70;99.90;;;;;;5014933;28;20552;-84
2024/01/27 03:19:43;;;;;;;1999.90;999.90;;;2.70;99.90;;;;;;5019223;28;20034;-84
2024/01/27 03:22:10;;;;;;;1999.90;999.90;;;3.40;99.90;;;;;;5019064;28;20421;-83
2024/01/27 03:24:36;;;;;;;1999.90;999.90;;;2.60;99.90;;;;;;5020491;28;20061;-84
2024/01/27 03:27:04;;;;;;;1999.90;999.90;;;2.60;99.90;;;;;;5021399;28;20132;-84
2024/01/27 03:29:30;;;;;;;1999.90;999.90;;;2.50;99.90;;;;;;5020574;28;20549;-84
2024/01/27 03:31:56;;;;;;;1999.90;999.90;;;3.70;99.90;;;;;;5021003;28;20033;-84
2024/01/27 03:34:24;;;;;;;1999.90;999.90;;;2.50;99.90;;;;;;5016540;28;20395;-84
2024/01/27 03:36:50;;;;;;;1999.90;999.90;;;2.50;99.90;;;;;;5039592;28;20041;-84
2024/01/27 03:39:16;;;;;;;1999.90;999.90;;;2.90;99.90;;;;;;5019798;28;20037;-84
2024/01/27 03:41:44;;;;;;;1999.90;999.90;;;3.30;99.90;;;;;;5016284;28;20374;-84
2024/01/27 03:44:10;;;;;;;1999.90;999.90;;;2.40;99.90;;;;;;5016353;28;20047;-84
2024/01/27 03:46:38;;;;;;;1999.90;999.90;;;2.30;99.90;;;;;;5014540;28;20037;-84
2024/01/27 03:49:05;;;;;;;1999.90;999.90;;;2.30;99.90;;;;;;5002645;28;20100;-84
2024/01/27 03:51:30;;;;;;;1999.90;999.90;;;2.30;99.90;;;;;;5011724;28;20119;-84
2024/01/27 03:53:56;;;;;;;1999.90;999.90;;;2.70;99.90;;;;;;5032893;28;20497;-83
2024/01/27 03:56:21;;;;;;;1999.90;999.90;;;3.20;99.90;;;;;;5034940;28;20092;-84
2024/01/27 03:58:47;;;;;;;1999.90;999.90;;;2.30;99.90;;;;;;5034305;28;20171;-84
2024/01/27 04:01:13;;;;;;;1999.90;999.90;;;2.30;99.90;;;;;;5036193;28;20037;-84
2024/01/27 04:03:38;;;;;;;1999.90;999.90;;;2.20;99.90;;;;;;5041449;28;20030;-84
2024/01/27 04:06:07;;;;;;;1999.90;999.90;;;2.30;99.90;;;;;;5035018;28;20036;-83
2024/01/27 04:08:33;;;;;;;1999.90;999.90;;;2.30;99.90;;;;;;5020981;28;20123;-84
2024/01/27 04:10:59;;;;;;;1999.90;999.90;;;2.30;99.90;;;;;;5018501;28;20560;-84
2024/01/27 04:13:24;;;;;;;1999.90;999.90;;;2.30;99.90;;;;;;5008390;28;20060;-84
2024/01/27 04:16:07;;;;;;;1999.90;999.90;;;2.30;99.90;;;;;;5017756;28;20442;-81
2024/01/27 04:18:32;;;;;;;1999.90;999.90;;;2.40;99.90;;;;;;4999719;28;20038;-81
2024/01/27 04:20:58;;;;;;;1999.90;999.90;;;3.20;99.90;;;;;;5000087;28;20565;-84
2024/01/27 04:23:23;;;;;;;1999.90;999.90;;;3.50;99.90;;;;;;4999520;28;20050;-85
2024/01/27 04:25:49;;;;;;;1999.90;999.90;;;2.40;99.90;;;;;;4998972;28;20050;-84
2024/01/27 04:28:14;;;;;;;1999.90;999.90;;;2.40;99.90;;;;;;5000530;28;20050;-84
2024/01/27 04:30:40;;;;;;;1999.90;999.90;;;3.60;99.90;;;;;;5001069;28;20541;-84
2024/01/27 04:33:07;;;;;;;1999.90;999.90;;;3.50;99.90;;;;;;4998990;28;20088;-84
2024/01/27 04:35:32;;;;;;;1999.90;999.90;;;2.40;99.90;;;;;;4998040;28;20483;-84
2024/01/27 04:37:59;;;;;;;1999.90;999.90;;;2.50;99.90;;;;;;4998562;28;20100;-85
2024/01/27 04:40:24;;;;;;;1999.90;999.90;;;2.40;99.90;;;;;;4997936;28;20267;-84
2024/01/27 04:42:50;;;;;;;1999.90;999.90;;;2.50;99.90;;;;;;4997688;28;20077;-84
2024/01/27 04:45:16;;;;;;;1999.90;999.90;;;2.50;99.90;;;;;;4998667;28;20068;-84
2024/01/27 04:47:41;;;;;;;1999.90;999.90;;;2.50;99.90;;;;;;5013365;28;20153;-84
2024/01/27 04:50:07;;;;;;;1999.90;999.90;;;2.10;99.90;;;;;;4998528;28;20038;-84
2024/01/27 04:52:33;;;;;;;1999.90;999.90;;;2.60;99.90;;;;;;4997636;28;20221;-81
2024/01/27 04:54:59;;;;;;;1999.90;999.90;;;3.20;99.90;;;;;;4997524;28;20034;-84
2024/01/27 04:57:24;;;;;;;1999.90;999.90;;;2.50;99.90;;;;;;4998087;28;20667;-84
2024/01/27 04:59:50;;;;;;;1999.90;999.90;;;2.50;99.90;;;;;;5014239;28;20084;-84
2024/01/27 05:02:16;;;;;;;1999.90;999.90;;;2.50;99.90;;;;;;4998684;28;20085;-84
2024/01/27 05:04:41;;;;;;;1999.90;999.90;;;3.50;99.90;;;;;;5014369;28;20487;-84
2024/01/27 05:07:07;;;;;;;1999.90;999.90;;;2.50;99.90;;;;;;4994021;28;20041;-84
2024/01/27 05:09:35;;;;;;;1999.90;999.90;;;2.50;99.90;;;;;;4992547;28;20030;-84
2024/01/27 05:12:01;;;;;;;1999.90;999.90;;;2.40;99.90;;;;;;4989577;28;20064;-84
2024/01/27 05:14:26;;;;;;;1999.90;999.90;;;2.40;99.90;;;;;;4999062;28;20049;-84
2024/01/27 05:16:52;;;;;;;1999.90;999.90;;;2.40;99.90;;;;;;5012095;28;20045;-84
2024/01/27 05:19:18;;;;;;;1999.90;999.90;;;2.40;99.90;;;;;;5012041;28;20036;-84
2024/01/27 05:21:44;;;;;;;1999.90;999.90;;;2.40;99.90;;;;;;5011706;28;20044;-84
2024/01/27 05:24:09;;;;;;;1999.90;999.90;;;2.50;99.90;;;;;;5011588;28;20041;-84
2024/01/27 05:26:35;;;;;;;1999.90;999.90;;;2.40;99.90;;;;;;5019695;28;20042;-84
2024/01/27 05:29:01;;;;;;;1999.90;999.90;;;2.40;99.90;;;;;;4999682;28;20141;-84
2024/01/27 05:31:26;;;;;;;1999.90;999.90;;;2.30;99.90;;;;;;4998946;28;20036;-85
2024/01/27 05:33:52;;;;;;;1999.90;999.90;;;2.40;99.90;;;;;;5002237;28;20207;-85
2024/01/27 05:36:18;;;;;;;1999.90;999.90;;;3.60;99.90;;;;;;5003753;28;20034;-84
2024/01/27 05:38:43;;;;;;;1999.90;999.90;;;3.70;99.90;;;;;;5019852;28;20034;-84
2024/01/27 05:41:09;;;;;;;1999.90;999.90;;;2.40;99.90;;;;;;5003541;28;20034;-84
2024/01/27 05:43:35;;;;;;;1999.90;999.90;;;2.40;99.90;;;;;;5004214;28;20033;-84
2024/01/27 05:46:00;;;;;;;1999.90;999.90;;;2.40;99.90;;;;;;5003870;28;20473;-82
2024/01/27 05:48:26;;;;;;;1999.90;999.90;;;3.00;99.90;;;;;;5004263;28;20042;-81
2024/01/27 05:50:59;;;;;;;1999.90;999.90;;;2.40;99.90;;;;;;5004261;28;20046;-81
2024/01/27 05:53:25;;;;;;;1999.90;999.90;;;3.50;99.90;;;;;;5002703;28;20041;-82
2024/01/27 05:55:52;;;;;;;1999.90;999.90;;;2.50;99.90;;;;;;5004599;28;20034;-81
2024/01/27 05:58:21;;;;;;;1999.90;999.90;;;2.40;99.90;;;;;;5017256;28;20042;-82
2024/01/27 06:00:47;;;;;;;1999.90;999.90;;;2.40;99.90;;;;;;5020208;28;20118;-82
2024/01/27 06:03:13;;;;;;;1999.90;999.90;;;2.40;99.90;;;;;;5003947;28;20042;-82
2024/01/27 06:05:38;;;;;;;1999.90;999.90;;;2.40;99.90;;;;;;5004174;28;20042;-81
2024/01/27 06:08:07;;;;;;;1999.90;999.90;;;2.40;99.90;;;;;;5004267;28;20176;-82
2024/01/27 06:10:32;;;;;;;1999.90;999.90;;;2.40;99.90;;;;;;5003535;28;20098;-81
2024/01/27 06:12:58;;;;;;;1999.90;999.90;;;2.30;99.90;;;;;;5004480;28;20077;-82
2024/01/27 06:15:24;;;;;;;1999.90;999.90;;;2.30;99.90;;;;;;5031655;28;20092;-81
2024/01/27 06:17:49;;;;;;;1999.90;999.90;;;2.30;99.90;;;;;;5036166;28;20120;-81
2024/01/27 06:20:18;;;;;;;1999.90;999.90;;;2.30;99.90;;;;;;5004172;28;20044;-81
2024/01/27 06:22:44;;;;;;;1999.90;999.90;;;2.20;99.90;;;;;;5001621;28;20042;-82
2024/01/27 06:25:10;;;;;;;1999.90;999.90;;;2.20;99.90;;;;;;4999715;28;20050;-82
2024/01/27 06:27:37;;;;;;;1999.90;999.90;;;2.80;99.90;;;;;;5000499;28;20430;-82
2024/01/27 06:30:04;;;;;;;1999.90;999.90;;;2.20;99.90;;;;;;5014467;28;20048;-83
2024/01/27 06:32:30;;;;;;;1999.90;999.90;;;2.20;99.90;;;;;;4997296;28;20042;-84
2024/01/27 06:34:55;;;;;;;1999.90;999.90;;;2.70;99.90;;;;;;5013745;28;20080;-84
2024/01/27 06:37:21;;;;;;;1999.90;999.90;;;2.20;99.90;;;;;;4999068;28;20087;-84
2024/01/27 06:39:47;;;;;;;1999.90;999.90;;;3.00;99.90;;;;;;4996244;28;20036;-84
2024/01/27 06:42:12;;;;;;;1999.90;999.90;;;2.10;99.90;;;;;;4997521;28;20461;-84
2024/01/27 06:44:38;;;;;;;1999.90;999.90;;;3.10;99.90;;;;;;4997745;28;20046;-84
2024/01/27 06:47:05;;;;;;;1999.90;999.90;;;2.10;99.90;;;;;;4996947;28;20072;-84
2024/01/27 06:49:30;;;;;;;1999.90;999.90;;;2.10;99.90;;;;;;4997894;28;20188;-84
2024/01/27 06:51:56;;;;;;;1999.90;999.90;;;2.00;99.90;;;;;;4996475;28;20269;-84
2024/01/27 06:54:21;;;;;;;1999.90;999.90;;;2.10;99.90;;;;;;4996138;28;20037;-84
2024/01/27 06:56:47;;;;;;;1999.90;999.90;;;2.00;99.90;;;;;;4996503;28;20041;-84
2024/01/27 06:59:16;;;;;;;1999.90;999.90;;;2.90;99.90;;;;;;5025054;28;20097;-84
2024/01/27 07:01:51;;;;;;;1999.90;999.90;;;3.40;99.90;;;;;;5008118;28;20078;-84
2024/01/27 07:04:20;;;;;;;1999.90;999.90;;;2.00;99.90;;;;;;5000748;28;20124;-84
2024/01/27 07:06:45;;;;;;;1999.90;999.90;;;2.00;99.90;;;;;;4987244;28;20087;-83
2024/01/27 07:09:11;;;;;;;1999.90;999.90;;;3.10;99.90;;;;;;5006549;28;20061;-84
2024/01/27 07:11:37;;;;;;;1999.90;999.90;;;2.10;99.90;;;;;;5006863;28;20045;-84
2024/01/27 07:14:15;;;;;;;1999.90;999.90;;;2.00;99.90;;;;;;5006376;28;20054;-84
2024/01/27 07:16:41;;;;;;;1999.90;999.90;;;2.00;99.90;;;;;;5007213;28;20065;-84
2024/01/27 07:19:07;;;;;;;1999.90;999.90;;;1.60;99.90;;;;;;5006838;28;20053;-84
2024/01/27 07:21:32;;;;;;;1999.90;999.90;;;2.00;99.90;;;;;;5007242;28;20045;-84
2024/01/27 07:24:05;;;;;;;1999.90;999.90;;;2.10;99.90;;;;;;5007938;28;20033;-84
2024/01/27 07:26:36;;;;;;;1999.90;999.90;;;2.00;99.90;;;;;;5007286;28;20044;-84
2024/01/27 07:29:02;;;;;;;1999.90;999.90;;;3.10;99.90;;;;;;5007590;28;20048;-85
2024/01/27 07:31:28;;;;;;;1999.90;999.90;;;2.70;99.90;;;;;;5008586;28;20259;-84
2024/01/27 07:33:53;;;;;;;1999.90;999.90;;;3.60;99.90;;;;;;5008347;28;20510;-84
2024/01/27 07:36:19;;;;;;;1999.90;999.90;;;2.10;99.90;;;;;;5009168;28;20045;-84
2024/01/27 07:38:45;;;;;;;1999.90;999.90;;;2.10;99.90;;;;;;5008959;28;20042;-84
2024/01/27 07:41:13;;;;;;;1999.90;999.90;;;2.10;99.90;;;;;;5025414;28;20057;-84
2024/01/27 07:43:39;;;;;;;1999.90;999.90;;;2.10;99.90;;;;;;5009394;28;20038;-85
2024/01/27 07:46:05;;;;;;;1999.90;999.90;;;3.10;99.90;;;;;;5034835;28;20061;-85
2024/01/27 07:48:30;;;;;;;1999.90;999.90;;;3.60;99.90;;;;;;5008986;28;20136;-85
2024/01/27 07:51:11;;;;;;;1999.90;999.90;;;3.10;99.90;;;;;;5008181;28;20557;-85
2024/01/27 07:53:37;;;;;;;1999.90;999.90;;;1.60;99.90;;;;;;5007165;28;20030;-85
2024/01/27 07:56:02;;;;;;;1999.90;999.90;;;3.50;99.90;;;;;;5009240;28;20046;-85
2024/01/27 07:58:28;;;;;;;1999.90;999.90;;;2.10;99.90;;;;;;5008731;28;20057;-85
2024/01/27 08:00:54;;;;;;;1999.90;999.90;;;3.00;99.90;;;;;;5008547;28;20038;-85
2024/01/27 08:03:20;;;;;;;1999.90;999.90;;;1.20;99.90;;;;;;5009784;28;20080;-86
2024/01/27 08:05:45;;;;;;;1999.90;999.90;;;3.30;99.90;;;;;;5009184;28;20042;-86
2024/01/27 08:08:11;;;;;;;1999.90;999.90;;;3.40;99.90;;;;;;5042182;28;20273;-86
2024/01/27 08:10:46;;;;;;;1999.90;999.90;;;2.20;99.90;;;;;;5038555;28;20509;-86
2024/01/27 08:13:12;;;;;;;1999.90;999.90;;;2.30;99.90;;;;;;5034790;28;20037;-86
2024/01/27 08:15:37;;;;;;;1999.90;999.90;;;2.20;99.90;;;;;;5008334;28;20090;-86
2024/01/27 08:18:03;;;;;;;1999.90;999.90;;;2.30;99.90;;;;;;5007517;28;20045;-86
2024/01/27 08:20:29;;;;;;;1999.90;999.90;;;2.30;99.90;;;;;;5007544;28;20398;-86
2024/01/27 08:22:54;;;;;;;1999.90;999.90;;;2.30;99.90;;;;;;5008241;28;20034;-83
2024/01/27 08:25:20;;;;;;;1999.90;999.90;;;2.30;99.90;;;;;;5007177;28;20037;-83
2024/01/27 08:27:45;;;;;;;1999.90;999.90;;;3.00;99.90;;;;;;5007947;28;20066;-82
2024/01/27 08:30:12;;;;;;;1999.90;999.90;;;3.40;99.90;;;;;;5007929;28;20068;-83
2024/01/27 08:32:37;;;;;;;1999.90;999.90;;;2.50;99.90;;;;;;5024684;28;20050;-85
2024/01/27 08:35:03;;;;;;;1999.90;999.90;;;3.70;99.90;;;;;;5024178;28;20073;-84
2024/01/27 08:37:29;;;;;;;1999.90;999.90;;;2.60;99.90;;;;;;5008438;28;20034;-84
2024/01/27 08:39:55;;;;;;;1999.90;999.90;;;3.60;99.90;;;;;;5007778;28;20052;-83
2024/01/27 08:42:21;;;;;;;1999.90;999.90;;;2.50;99.90;;;;;;5019912;28;20058;-83
2024/01/27 08:44:47;;;;;;;1999.90;999.90;;;2.70;99.90;;;;;;5003939;28;20038;-83
2024/01/27 08:47:12;;;;;;;1999.90;999.90;;;3.90;99.90;;;;;;5004069;28;20414;-83
2024/01/27 08:49:38;;;;;;;1999.90;999.90;;;3.50;99.90;;;;;;5004242;28;20042;-83
2024/01/27 08:52:04;;;;;;;1999.90;999.90;;;4.10;99.90;;;;;;5003800;28;20053;-83
2024/01/27 08:54:29;;;;;;;1999.90;999.90;;;2.80;99.90;;;;;;5004109;28;20137;-83
2024/01/27 08:56:55;;;;;;;1999.90;999.90;;;4.20;99.90;;;;;;5003048;28;20097;-84
2024/01/27 08:59:21;;;;;;;1999.90;999.90;;;2.90;99.90;;;;;;5020621;28;20050;-83
2024/01/27 09:01:46;;;;;;;1999.90;999.90;;;3.90;99.90;;;;;;5022600;28;20038;-82
2024/01/27 09:04:12;;;;;;;1999.90;999.90;;;3.20;99.90;;;;;;5008149;28;20048;-83
2024/01/27 09:06:38;;;;;;;1999.90;999.90;;;3.70;99.90;;;;;;5008415;28;20549;-83
2024/01/27 09:09:03;;;;;;;1999.90;999.90;;;3.10;99.90;;;;;;5007809;28;20237;-83
2024/01/27 09:11:30;;;;;;;1999.90;999.90;;;3.00;99.90;;;;;;5008094;28;20084;-83
2024/01/27 09:13:56;;;;;;;1999.90;999.90;;;4.60;99.90;;;;;;5008123;28;20081;-83
2024/01/27 09:16:23;;;;;;;1999.90;999.90;;;4.50;99.90;;;;;;5007507;28;20046;-83
2024/01/27 09:18:50;;;;;;;1999.90;999.90;;;3.30;99.90;;;;;;5008049;28;20254;-83
2024/01/27 09:21:20;;;;;;;1999.90;999.90;;;4.60;99.90;;;;;;5007561;28;20106;-83
2024/01/27 09:23:47;;;;;;;1999.90;999.90;;;4.40;99.90;;;;;;5007682;28;20041;-83
2024/01/27 09:26:15;;;;;;;1999.90;999.90;;;3.40;99.90;;;;;;5007062;28;20030;-83
2024/01/27 09:28:43;;;;;;;1999.90;999.90;;;3.40;99.90;;;;;;5008418;28;20091;-83
2024/01/27 09:31:12;;;;;;;1999.90;999.90;;;3.40;99.90;;;;;;5004380;28;20046;-83
2024/01/27 09:33:38;;;;;;;1999.90;999.90;;;4.40;99.90;;;;;;5004503;28;20034;-83
2024/01/27 09:36:04;;;;;;;1999.90;999.90;;;3.50;99.90;;;;;;5023433;28;20116;-83
2024/01/27 09:38:30;;;;;;;1999.90;999.90;;;3.50;99.90;;;;;;5007122;28;20045;-83
2024/01/27 09:40:55;;;;;;;1999.90;999.90;;;4.00;99.90;;;;;;5006856;28;20042;-83
2024/01/27 09:43:23;;;;;;;1999.90;999.90;;;4.40;99.90;;;;;;5007359;28;20061;-83
2024/01/27 09:45:49;;;;;;;1999.90;999.90;;;4.20;99.90;;;;;;5007064;28;20041;-83
2024/01/27 09:48:14;;;;;;;1999.90;999.90;;;3.70;99.90;;;;;;5003089;28;20129;-83
2024/01/27 09:50:42;;;;;;;1999.90;999.90;;;3.80;99.90;;;;;;5011321;28;20037;-84
2024/01/27 09:53:08;;;;;;;1999.90;999.90;;;4.90;99.90;;;;;;5011399;28;20066;-85
2024/01/27 09:55:35;;;;;;;1999.90;999.90;;;5.10;99.90;;;;;;5011568;28;20033;-84
2024/01/27 09:58:01;;;;;;;1999.90;999.90;;;5.10;99.90;;;;;;5011573;28;20102;-83
2024/01/27 10:00:27;;;;;;;1999.90;999.90;;;4.40;99.90;;;;;;5011105;28;20121;-83
2024/01/27 10:02:56;;;;;;;1999.90;999.90;;;5.30;99.90;;;;;;5010299;28;20037;-83
2024/01/27 10:05:21;;;;;;;1999.90;999.90;;;4.00;99.90;;;;;;5009335;28;20101;-82
2024/01/27 10:07:48;;;;;;;1999.90;999.90;;;3.80;99.90;;;;;;5007564;28;20091;-82
2024/01/27 10:10:13;;;;;;;1999.90;999.90;;;4.00;99.90;;;;;;5006443;28;20046;-83
2024/01/27 10:12:42;;;;;;;1999.90;999.90;;;4.80;99.90;;;;;;5006748;28;20042;-83
2024/01/27 10:15:28;;;;;;;1999.90;999.90;;;4.20;99.90;;;;;;5005747;28;20049;-83
2024/01/27 10:18:07;;;;;;;1999.90;999.90;;;4.80;99.90;;;;;;5014274;28;20053;-83
2024/01/27 10:20:33;;;;;;;1999.90;999.90;;;4.30;99.90;;;;;;5016217;28;20038;-83
2024/01/27 10:23:09;;;;;;;1999.90;999.90;;;4.40;99.90;;;;;;5007717;28;20073;-83
2024/01/27 10:25:38;;;;;;;1999.90;999.90;;;4.80;99.90;;;;;;5032809;28;20033;-83
2024/01/27 10:28:06;;;;;;;1999.90;999.90;;;5.00;99.90;;;;;;5022826;28;20033;-83
2024/01/27 10:30:32;;;;;;;1999.90;999.90;;;4.60;99.90;;;;;;5005821;28;20049;-83
2024/01/27 10:32:57;;;;;;;1999.90;999.90;;;4.60;99.90;;;;;;4992128;28;20033;-84
2024/01/27 10:35:23;;;;;;;1999.90;999.90;;;4.70;99.90;;;;;;5010624;28;20045;-84
2024/01/27 10:37:53;;;;;;;1999.90;999.90;;;5.60;99.90;;;;;;5009079;28;20044;-83
2024/01/27 10:40:19;;;;;;;1999.90;999.90;;;5.80;99.90;;;;;;5003667;28;20034;-82
2024/01/27 10:42:45;;;;;;;1999.90;999.90;;;4.90;99.90;;;;;;5005553;28;20072;-83
2024/01/27 10:45:13;;;;;;;1999.90;999.90;;;6.10;99.90;;;;;;5005213;28;20069;-83
2024/01/27 10:47:39;;;;;;;1999.90;999.90;;;5.90;99.90;;;;;;5005597;28;20042;-83
2024/01/27 10:50:09;;;;;;;1999.90;999.90;;;6.30;99.90;;;;;;5002321;28;20158;-84
2024/01/27 10:52:41;;;;;;;1999.90;999.90;;;5.20;99.90;;;;;;5005370;28;20038;-83
2024/01/27 10:55:09;;;;;;;1999.90;999.90;;;5.50;99.90;;;;;;5001887;28;20048;-82
2024/01/27 10:57:36;;;;;;;1999.90;999.90;;;5.30;99.90;;;;;;5005645;28;20025;-82
2024/01/27 11:00:06;;;;;;;1999.90;999.90;;;5.30;99.90;;;;;;5022328;28;20121;-82
2024/01/27 11:02:33;;;;;;;1999.90;999.90;;;5.40;99.90;;;;;;5006825;28;20033;-82
2024/01/27 11:05:02;;;;;;;1999.90;999.90;;;5.50;99.90;;;;;;5005603;28;20038;-82
2024/01/27 11:07:28;;;;;;;1999.90;999.90;;;5.60;99.90;;;;;;5005027;28;20041;-83
2024/01/27 11:09:54;;;;;;;1999.90;999.90;;;5.60;99.90;;;;;;5021806;28;20069;-83
2024/01/27 11:12:22;;;;;;;1999.90;999.90;;;6.90;99.90;;;;;;5006367;28;20444;-83
2024/01/27 11:14:48;;;;;;;1999.90;999.90;;;6.20;99.90;;;;;;5006473;28;20104;-83
2024/01/27 11:17:15;;;;;;;1999.90;999.90;;;6.20;99.90;;;;;;5006123;28;20130;-83
2024/01/27 11:19:41;;;;;;;1999.90;999.90;;;6.60;99.90;;;;;;5005683;28;20046;-83
2024/01/27 11:22:07;;;;;;;1999.90;999.90;;;5.90;99.90;;;;;;5007004;28;20141;-83
2024/01/27 11:24:32;;;;;;;1999.90;999.90;;;7.00;99.90;;;;;;5005954;28;20046;-83
2024/01/27 11:27:05;;;;;;;1999.90;999.90;;;7.20;99.90;;;;;;5006354;28;20097;-83
2024/01/27 11:29:32;;;;;;;1999.90;999.90;;;6.00;99.90;;;;;;5006468;28;20454;-83
2024/01/27 11:32:02;;;;;;;1999.90;999.90;;;6.10;99.90;;;;;;5006508;28;20038;-83
2024/01/27 11:34:28;;;;;;;1999.90;999.90;;;6.40;99.90;;;;;;5007170;28;20041;-83
2024/01/27 11:36:56;;;;;;;1999.90;999.90;;;7.20;99.90;;;;;;5008238;28;20533;-83
2024/01/27 11:39:30;;;;;;;1999.90;999.90;;;6.30;99.90;;;;;;5006438;28;20045;-83
2024/01/27 11:42:11;;;;;;;1999.90;999.90;;;6.80;99.90;;;;;;5006478;28;20073;-83
2024/01/27 11:44:38;;;;;;;1999.90;999.90;;;6.20;99.90;;;;;;4987465;28;20050;-86
2024/01/27 11:47:04;;;;;;;1999.90;999.90;;;6.20;99.90;;;;;;5005754;28;20037;-83
2024/01/27 11:49:30;;;;;;;1999.90;999.90;;;6.30;99.90;;;;;;5001900;28;20063;-82
2024/01/27 11:51:58;;;;;;;1999.90;999.90;;;6.30;99.90;;;;;;4999406;28;20038;-82
2024/01/27 11:54:24;;;;;;;1999.90;999.90;;;6.20;99.90;;;;;;5014681;28;20197;-82
2024/01/27 11:56:50;;;;;;;1999.90;999.90;;;7.00;99.90;;;;;;5013832;28;20037;-82
2024/01/27 11:59:15;;;;;;;1999.90;999.90;;;6.30;99.90;;;;;;5013473;28;20530;-83
2024/01/27 12:01:41;;;;;;;1999.90;999.90;;;6.30;99.90;;;;;;5012923;28;20034;-82
2024/01/27 12:04:09;;;;;;;1999.90;999.90;;;6.70;99.90;;;;;;5013368;28;20040;-81